Time;durP1;ratioP1;P1;durP2;ratioP2;P2;SDS_P1;SDS_P2;PMS_P1;PMS_P2;Temp;Humidity;BMP_temperature;BMP_pressure;BME280_temperature;BME280_humidity;BME280_pressure;Samples;Min_cycle;Max_cycle;Signal;HPM_P1;HPM_P2
2022/03/08 00:01:51;;;;;;;;;;;1.70;76.30;;;;;;5135766;27;81769;-49
2022/03/08 00:04:16;;;;;;;;;;;1.70;76.30;;;;;;5135382;27;82480;-49
2022/03/08 00:06:42;;;;;;;;;;;1.70;76.40;;;;;;5135031;27;82816;-49
2022/03/08 00:09:08;;;;;;;;;;;1.70;76.40;;;;;;5135385;27;83761;-49
2022/03/08 00:11:34;;;;;;;;;;;1.70;76.20;;;;;;5135017;27;83618;-50
2022/03/08 00:13:59;;;;;;;;;;;1.70;76.40;;;;;;5134700;27;81780;-49
2022/03/08 00:16:25;;;;;;;;;;;1.70;76.30;;;;;;5135501;27;81973;-49
2022/03/08 00:18:51;;;;;;;;;;;1.70;76.20;;;;;;5134966;27;83390;-49
2022/03/08 00:21:17;;;;;;;;;;;1.70;76.30;;;;;;5137968;27;81835;-49
2022/03/08 00:23:42;;;;;;;;;;;1.70;76.30;;;;;;5135091;27;82658;-49
2022/03/08 00:26:09;;;;;;;;;;;1.70;76.30;;;;;;5135303;27;81704;-49
2022/03/08 00:28:35;;;;;;;;;;;1.70;76.20;;;;;;5134973;27;82190;-49
2022/03/08 00:31:00;;;;;;;;;;;1.70;76.10;;;;;;5134015;27;84656;-49
2022/03/08 00:33:27;;;;;;;;;;;1.70;76.20;;;;;;5134922;27;81839;-49
2022/03/08 00:35:53;;;;;;;;;;;1.70;76.20;;;;;;5134808;27;83045;-49
2022/03/08 00:38:19;;;;;;;;;;;1.70;76.20;;;;;;5134593;27;83120;-50
2022/03/08 00:40:44;;;;;;;;;;;1.70;76.30;;;;;;5134913;27;81789;-50
2022/03/08 00:43:10;;;;;;;;;;;1.70;76.20;;;;;;5137335;27;81982;-49
2022/03/08 00:45:36;;;;;;;;;;;1.70;76.30;;;;;;5134710;27;81834;-49
2022/03/08 00:48:02;;;;;;;;;;;1.70;76.10;;;;;;5135223;27;83014;-49
2022/03/08 00:50:29;;;;;;;;;;;1.70;76.20;;;;;;5134563;27;83192;-49
2022/03/08 00:52:56;;;;;;;;;;;1.70;76.30;;;;;;5134708;27;81827;-49
2022/03/08 00:55:22;;;;;;;;;;;1.70;76.10;;;;;;5134240;27;82758;-49
2022/03/08 00:57:48;;;;;;;;;;;1.70;76.10;;;;;;5133873;27;84914;-49
2022/03/08 01:00:15;;;;;;;;;;;1.70;76.20;;;;;;5134417;27;82024;-49
2022/03/08 01:02:41;;;;;;;;;;;1.60;76.10;;;;;;5133874;27;81812;-49
2022/03/08 01:05:07;;;;;;;;;;;1.60;76.20;;;;;;5136871;27;82643;-49
2022/03/08 01:07:33;;;;;;;;;;;1.60;76.20;;;;;;5134466;27;81903;-49
2022/03/08 01:09:59;;;;;;;;;;;1.60;76.20;;;;;;5134117;27;83583;-49
2022/03/08 01:12:24;;;;;;;;;;;1.60;76.20;;;;;;5134768;27;81331;-50
2022/03/08 01:14:51;;;;;;;;;;;1.60;76.10;;;;;;5134433;27;82096;-49
2022/03/08 01:17:17;;;;;;;;;;;1.70;76.00;;;;;;5133956;27;83451;-49
2022/03/08 01:19:42;;;;;;;;;;;1.70;76.10;;;;;;5133552;27;82722;-49
2022/03/08 01:22:10;;;;;;;;;;;1.70;76.00;;;;;;5134554;27;81845;-49
2022/03/08 01:24:35;;;;;;;;;;;1.70;75.90;;;;;;5133306;27;83792;-49
2022/03/08 01:27:01;;;;;;;;;;;1.60;76.00;;;;;;5137123;27;82059;-49
2022/03/08 01:29:27;;;;;;;;;;;1.60;76.10;;;;;;5134096;27;81799;-49
2022/03/08 01:31:52;;;;;;;;;;;1.50;76.20;;;;;;5133960;27;81779;-49
2022/03/08 01:34:18;;;;;;;;;;;1.60;76.20;;;;;;5134039;27;82971;-49
2022/03/08 01:36:44;;;;;;;;;;;1.60;76.10;;;;;;5134270;27;81816;-49
2022/03/08 01:39:09;;;;;;;;;;;1.60;76.10;;;;;;5134251;27;81683;-49
2022/03/08 01:41:35;;;;;;;;;;;1.60;76.10;;;;;;5133892;27;82786;-49
2022/03/08 01:44:01;;;;;;;;;;;1.60;76.00;;;;;;5132870;27;84502;-50
2022/03/08 01:46:27;;;;;;;;;;;1.60;76.20;;;;;;5133705;27;81838;-49
2022/03/08 01:48:53;;;;;;;;;;;1.60;76.20;;;;;;5136612;27;81682;-49
2022/03/08 01:51:19;;;;;;;;;;;1.50;76.40;;;;;;5133661;27;81914;-49
2022/03/08 01:53:44;;;;;;;;;;;1.50;76.30;;;;;;5133557;27;83132;-49
2022/03/08 01:56:10;;;;;;;;;;;1.50;76.40;;;;;;5133412;27;83426;-49
2022/03/08 01:58:36;;;;;;;;;;;1.40;76.40;;;;;;5133585;27;81797;-49
2022/03/08 02:01:02;;;;;;;;;;;1.40;76.40;;;;;;5133933;27;83012;-50
2022/03/08 02:03:28;;;;;;;;;;;1.50;76.40;;;;;;5133376;27;83745;-49
2022/03/08 02:05:54;;;;;;;;;;;1.50;76.30;;;;;;5133329;27;81825;-49
2022/03/08 02:08:19;;;;;;;;;;;1.50;76.20;;;;;;5134641;27;82731;-49
2022/03/08 02:10:45;;;;;;;;;;;1.40;76.30;;;;;;5133634;27;81861;-49
2022/03/08 02:13:11;;;;;;;;;;;1.50;76.40;;;;;;5133567;27;81876;-49
2022/03/08 02:15:36;;;;;;;;;;;1.50;76.30;;;;;;5133043;27;82574;-50
2022/03/08 02:18:03;;;;;;;;;;;1.40;76.30;;;;;;5133616;27;81841;-49
2022/03/08 02:20:28;;;;;;;;;;;1.40;76.40;;;;;;5133201;27;82725;-49
2022/03/08 02:22:55;;;;;;;;;;;1.50;76.40;;;;;;5132978;27;83424;-49
2022/03/08 02:25:21;;;;;;;;;;;1.50;76.20;;;;;;5133198;27;81240;-49
2022/03/08 02:27:48;;;;;;;;;;;1.50;76.20;;;;;;5133365;27;81778;-49
2022/03/08 02:30:15;;;;;;;;;;;1.50;76.30;;;;;;5135697;27;83524;-49
2022/03/08 02:32:41;;;;;;;;;;;1.50;76.10;;;;;;5132434;27;82925;-49
2022/03/08 02:35:12;;;;;;;;;;;1.40;76.20;;;;;;5132940;27;82373;-49
2022/03/08 02:37:39;;;;;;;;;;;1.50;76.10;;;;;;5133220;27;81820;-49
2022/03/08 02:40:06;;;;;;;;;;;1.40;76.40;;;;;;5132951;27;82057;-50
2022/03/08 02:42:31;;;;;;;;;;;1.40;76.30;;;;;;5132526;27;84466;-49
2022/03/08 02:44:57;;;;;;;;;;;1.40;76.40;;;;;;5133049;27;81858;-49
2022/03/08 02:47:22;;;;;;;;;;;1.40;76.30;;;;;;5132725;27;82814;-49
2022/03/08 02:49:48;;;;;;;;;;;1.40;76.40;;;;;;5133072;27;82768;-49
2022/03/08 02:52:14;;;;;;;;;;;1.40;76.30;;;;;;5135444;27;81775;-49
2022/03/08 02:54:39;;;;;;;;;;;1.40;76.20;;;;;;5132746;27;82433;-49
2022/03/08 02:57:05;;;;;;;;;;;1.40;76.20;;;;;;5132274;27;82762;-49
2022/03/08 02:59:31;;;;;;;;;;;1.40;76.10;;;;;;5132891;27;81828;-49
2022/03/08 03:01:56;;;;;;;;;;;1.40;76.10;;;;;;5132584;27;82457;-49
2022/03/08 03:04:22;;;;;;;;;;;1.40;76.10;;;;;;5132480;27;81824;-49
2022/03/08 03:06:47;;;;;;;;;;;1.40;76.10;;;;;;5132516;27;82900;-49
2022/03/08 03:09:13;;;;;;;;;;;1.40;76.10;;;;;;5132592;27;82444;-49
2022/03/08 03:11:39;;;;;;;;;;;1.40;76.00;;;;;;5132430;27;81798;-49
2022/03/08 03:14:05;;;;;;;;;;;1.40;75.80;;;;;;5135348;27;83064;-49
2022/03/08 03:16:30;;;;;;;;;;;1.40;76.10;;;;;;5132199;27;82021;-49
2022/03/08 03:18:56;;;;;;;;;;;1.40;76.20;;;;;;5132615;27;81749;-49
2022/03/08 03:21:22;;;;;;;;;;;1.40;76.10;;;;;;5131222;27;84571;-49
2022/03/08 03:23:48;;;;;;;;;;;1.40;76.10;;;;;;5131886;27;81770;-49
2022/03/08 03:26:14;;;;;;;;;;;1.30;76.20;;;;;;5132122;27;82934;-49
2022/03/08 03:28:40;;;;;;;;;;;1.30;76.10;;;;;;5132139;27;83424;-49
2022/03/08 03:31:05;;;;;;;;;;;1.40;76.10;;;;;;5132035;27;81805;-49
2022/03/08 03:33:31;;;;;;;;;;;1.40;76.10;;;;;;5132462;27;81926;-49
2022/03/08 03:35:57;;;;;;;;;;;1.30;76.10;;;;;;5134931;27;82435;-50
2022/03/08 03:38:22;;;;;;;;;;;1.30;76.20;;;;;;5132834;27;81830;-49
2022/03/08 03:40:48;;;;;;;;;;;1.30;76.10;;;;;;5131790;27;82410;-49
2022/03/08 03:43:14;;;;;;;;;;;1.30;76.20;;;;;;5132047;27;81779;-49
2022/03/08 03:45:40;;;;;;;;;;;1.30;76.00;;;;;;5131260;27;83039;-49
2022/03/08 03:48:06;;;;;;;;;;;1.40;76.00;;;;;;5131703;27;83724;-49
2022/03/08 03:50:32;;;;;;;;;;;1.30;75.90;;;;;;5131881;27;81889;-49
2022/03/08 03:52:58;;;;;;;;;;;1.30;76.10;;;;;;5131918;27;82757;-49
2022/03/08 03:55:23;;;;;;;;;;;1.30;76.20;;;;;;5131661;27;83451;-49
2022/03/08 03:57:49;;;;;;;;;;;1.30;76.10;;;;;;5134447;27;81874;-49
2022/03/08 04:00:15;;;;;;;;;;;1.30;76.10;;;;;;5131442;27;83607;-49
2022/03/08 04:02:41;;;;;;;;;;;1.30;76.10;;;;;;5132277;27;81049;-49
2022/03/08 04:05:07;;;;;;;;;;;1.40;75.90;;;;;;5131736;27;82202;-49
2022/03/08 04:07:33;;;;;;;;;;;1.30;76.00;;;;;;5131413;27;83199;-49
2022/03/08 04:09:58;;;;;;;;;;;1.30;75.90;;;;;;5131382;27;82733;-50
2022/03/08 04:12:24;;;;;;;;;;;1.30;76.00;;;;;;5131594;27;83929;-49
2022/03/08 04:14:50;;;;;;;;;;;1.30;76.00;;;;;;5131574;27;82417;-49
2022/03/08 04:17:15;;;;;;;;;;;1.30;76.00;;;;;;5134362;27;81676;-49
2022/03/08 04:19:42;;;;;;;;;;;1.30;75.90;;;;;;5131520;27;82569;-49
2022/03/08 04:22:08;;;;;;;;;;;1.30;76.00;;;;;;5131487;27;81787;-49
2022/03/08 04:24:34;;;;;;;;;;;1.30;76.20;;;;;;5131004;27;82816;-49
2022/03/08 04:26:59;;;;;;;;;;;1.20;76.20;;;;;;5131988;27;81585;-49
2022/03/08 04:29:25;;;;;;;;;;;1.20;76.40;;;;;;5131401;27;81705;-49
2022/03/08 04:31:52;;;;;;;;;;;1.20;76.30;;;;;;5132367;27;83027;-49
2022/03/08 04:34:17;;;;;;;;;;;1.30;76.10;;;;;;5134464;27;82998;-49
2022/03/08 04:36:43;;;;;;;;;;;1.20;76.10;;;;;;5135181;27;81913;-49
2022/03/08 04:39:09;;;;;;;;;;;1.30;76.00;;;;;;5137492;27;82762;-49
2022/03/08 04:41:35;;;;;;;;;;;1.20;76.20;;;;;;5134704;27;81796;-50
2022/03/08 04:44:00;;;;;;;;;;;1.20;76.10;;;;;;5134835;27;82744;-49
2022/03/08 04:46:26;;;;;;;;;;;1.20;76.10;;;;;;5134682;27;82636;-49
2022/03/08 04:48:52;;;;;;;;;;;1.20;76.20;;;;;;5134688;27;81795;-49
2022/03/08 04:51:17;;;;;;;;;;;1.30;76.20;;;;;;5135363;27;81573;-49
2022/03/08 04:53:43;;;;;;;;;;;1.20;76.30;;;;;;5134486;27;83363;-49
2022/03/08 04:56:09;;;;;;;;;;;1.20;76.30;;;;;;5134610;27;82088;-49
2022/03/08 04:58:34;;;;;;;;;;;1.20;76.20;;;;;;5134137;27;82932;-49
2022/03/08 05:01:00;;;;;;;;;;;1.20;76.20;;;;;;5137330;27;82460;-49
2022/03/08 05:03:25;;;;;;;;;;;1.20;76.30;;;;;;5134671;27;81740;-49
2022/03/08 05:05:51;;;;;;;;;;;1.20;76.20;;;;;;5134070;27;83430;-49
2022/03/08 05:08:17;;;;;;;;;;;1.20;76.10;;;;;;5134381;27;81804;-49
2022/03/08 05:10:42;;;;;;;;;;;1.20;76.30;;;;;;5134635;27;81810;-49
2022/03/08 05:13:08;;;;;;;;;;;1.20;76.40;;;;;;5134339;27;82456;-49
2022/03/08 05:15:33;;;;;;;;;;;1.20;76.70;;;;;;5134698;27;81069;-49
2022/03/08 05:17:59;;;;;;;;;;;1.20;76.20;;;;;;5134270;27;82059;-49
2022/03/08 05:20:25;;;;;;;;;;;1.20;76.20;;;;;;5133925;27;82507;-49
2022/03/08 05:22:50;;;;;;;;;;;1.20;76.20;;;;;;5136302;27;82746;-49
2022/03/08 05:25:16;;;;;;;;;;;1.20;76.10;;;;;;5133703;27;82611;-49
2022/03/08 05:27:41;;;;;;;;;;;1.20;76.30;;;;;;5133959;27;81784;-49
2022/03/08 05:30:08;;;;;;;;;;;1.20;76.20;;;;;;5133961;27;82355;-49
2022/03/08 05:32:33;;;;;;;;;;;1.20;76.20;;;;;;5133697;27;83251;-49
2022/03/08 05:34:59;;;;;;;;;;;1.20;76.10;;;;;;5133977;27;82058;-49
2022/03/08 05:37:25;;;;;;;;;;;1.20;76.30;;;;;;5133847;27;82875;-49
2022/03/08 05:39:51;;;;;;;;;;;1.20;76.20;;;;;;5134191;27;81868;-49
2022/03/08 05:42:16;;;;;;;;;;;1.10;76.20;;;;;;5133735;27;81831;-49
2022/03/08 05:44:42;;;;;;;;;;;1.20;76.20;;;;;;5136250;27;82967;-49
2022/03/08 05:47:08;;;;;;;;;;;1.20;76.20;;;;;;5133124;27;83117;-49
2022/03/08 05:49:34;;;;;;;;;;;1.20;76.10;;;;;;5133623;27;84338;-49
2022/03/08 05:51:59;;;;;;;;;;;1.10;76.20;;;;;;5133776;27;82715;-49
2022/03/08 05:54:25;;;;;;;;;;;1.10;76.30;;;;;;5133648;27;81797;-49
2022/03/08 05:56:50;;;;;;;;;;;1.10;76.20;;;;;;5133576;27;81789;-49
2022/03/08 05:59:16;;;;;;;;;;;1.10;76.40;;;;;;5133634;27;82280;-50
2022/03/08 06:01:42;;;;;;;;;;;1.10;76.30;;;;;;5133596;27;81826;-50
2022/03/08 06:04:08;;;;;;;;;;;1.10;76.10;;;;;;5136788;27;82933;-53
2022/03/08 06:06:33;;;;;;;;;;;1.20;76.10;;;;;;5133854;27;81905;-50
2022/03/08 06:08:59;;;;;;;;;;;1.10;76.20;;;;;;5133861;27;81986;-50
2022/03/08 06:11:25;;;;;;;;;;;1.10;76.20;;;;;;5132982;27;83314;-49
2022/03/08 06:13:50;;;;;;;;;;;1.10;76.10;;;;;;5133592;27;81771;-49
2022/03/08 06:16:16;;;;;;;;;;;1.10;76.20;;;;;;5133305;27;81849;-50
2022/03/08 06:18:41;;;;;;;;;;;1.10;76.10;;;;;;5133565;27;81841;-50
2022/03/08 06:21:07;;;;;;;;;;;1.20;76.00;;;;;;5133790;27;81822;-51
2022/03/08 06:23:33;;;;;;;;;;;1.20;76.00;;;;;;5133486;27;81795;-49
2022/03/08 06:25:59;;;;;;;;;;;1.10;76.00;;;;;;5135731;27;83534;-52
2022/03/08 06:28:25;;;;;;;;;;;1.10;76.00;;;;;;5133912;27;81774;-52
2022/03/08 06:30:50;;;;;;;;;;;1.10;76.10;;;;;;5133153;27;82351;-53
2022/03/08 06:33:17;;;;;;;;;;;1.10;76.20;;;;;;5133339;27;81742;-51
2022/03/08 06:35:43;;;;;;;;;;;1.10;76.20;;;;;;5132524;27;82869;-51
2022/03/08 06:38:09;;;;;;;;;;;1.10;76.10;;;;;;5132802;27;83251;-50
2022/03/08 06:40:34;;;;;;;;;;;1.10;76.10;;;;;;5133273;27;81742;-49
2022/03/08 06:43:00;;;;;;;;;;;1.10;76.10;;;;;;5132904;27;82867;-50
2022/03/08 06:45:25;;;;;;;;;;;1.00;76.30;;;;;;5133008;27;82322;-50
2022/03/08 06:47:51;;;;;;;;;;;1.10;76.20;;;;;;5135697;27;81901;-49
2022/03/08 06:50:17;;;;;;;;;;;1.10;76.10;;;;;;5132640;27;83367;-49
2022/03/08 06:52:42;;;;;;;;;;;1.10;76.10;;;;;;5133632;27;81122;-50
2022/03/08 06:55:10;;;;;;;;;;;1.10;76.10;;;;;;5132386;27;82155;-49
2022/03/08 06:57:37;;;;;;;;;;;1.10;76.20;;;;;;5132682;27;83441;-52
2022/03/08 07:00:04;;;;;;;;;;;1.00;76.20;;;;;;5131992;27;82707;-50
2022/03/08 07:02:29;;;;;;;;;;;1.00;76.20;;;;;;5132496;27;84222;-51
2022/03/08 07:04:55;;;;;;;;;;;1.00;76.20;;;;;;5132400;27;82504;-49
2022/03/08 07:07:21;;;;;;;;;;;1.00;76.20;;;;;;5132781;27;81810;-51
2022/03/08 07:09:47;;;;;;;;;;;1.00;76.40;;;;;;5135511;27;81896;-50
2022/03/08 07:12:14;;;;;;;;;;;1.00;76.30;;;;;;5132560;27;81803;-50
2022/03/08 07:14:40;;;;;;;;;;;1.00;76.10;;;;;;5132271;27;82644;-49
2022/03/08 07:17:06;;;;;;;;;;;1.00;76.20;;;;;;5132817;27;82735;-51
2022/03/08 07:19:31;;;;;;;;;;;1.00;76.20;;;;;;5132506;27;81908;-49
2022/03/08 07:21:57;;;;;;;;;;;1.00;76.10;;;;;;5132431;27;83365;-51
2022/03/08 07:24:22;;;;;;;;;;;1.00;76.10;;;;;;5131364;27;84582;-50
2022/03/08 07:26:48;;;;;;;;;;;1.00;76.20;;;;;;5132258;27;81945;-52
2022/03/08 07:29:14;;;;;;;;;;;1.10;76.10;;;;;;5131498;27;81989;-50
2022/03/08 07:31:39;;;;;;;;;;;1.10;75.90;;;;;;5134947;27;83091;-49
2022/03/08 07:34:05;;;;;;;;;;;1.00;76.00;;;;;;5132386;27;82038;-49
2022/03/08 07:36:31;;;;;;;;;;;1.10;75.90;;;;;;5131957;27;83591;-49
2022/03/08 07:38:57;;;;;;;;;;;1.10;75.90;;;;;;5131289;27;81764;-49
2022/03/08 07:41:22;;;;;;;;;;;1.10;76.00;;;;;;5132578;27;83026;-49
2022/03/08 07:43:48;;;;;;;;;;;1.10;75.90;;;;;;5131884;27;82505;-49
2022/03/08 07:46:15;;;;;;;;;;;1.10;75.70;;;;;;5131862;27;81889;-49
2022/03/08 07:48:40;;;;;;;;;;;1.20;75.70;;;;;;5131354;27;82955;-49
2022/03/08 07:51:06;;;;;;;;;;;1.20;75.70;;;;;;5131677;27;82647;-49
2022/03/08 07:53:32;;;;;;;;;;;1.20;75.60;;;;;;5133779;27;82142;-49
2022/03/08 07:55:58;;;;;;;;;;;1.10;75.60;;;;;;5131930;27;81822;-49
2022/03/08 07:58:23;;;;;;;;;;;1.20;75.70;;;;;;5132047;27;81798;-49
2022/03/08 08:00:49;;;;;;;;;;;1.20;75.60;;;;;;5131231;27;81825;-49
2022/03/08 08:03:14;;;;;;;;;;;1.20;75.60;;;;;;5131613;27;83390;-50
2022/03/08 08:05:40;;;;;;;;;;;1.10;75.70;;;;;;5132149;27;81063;-49
2022/03/08 08:08:06;;;;;;;;;;;1.20;75.70;;;;;;5135073;27;81962;-50
2022/03/08 08:10:32;;;;;;;;;;;1.20;75.70;;;;;;5135293;27;83545;-49
2022/03/08 08:12:58;;;;;;;;;;;1.20;75.60;;;;;;5137492;27;83233;-49
2022/03/08 08:15:24;;;;;;;;;;;1.20;75.90;;;;;;5135130;27;82425;-50
2022/03/08 08:17:49;;;;;;;;;;;1.10;75.70;;;;;;5135276;27;81791;-52
2022/03/08 08:20:15;;;;;;;;;;;1.20;75.80;;;;;;5135594;27;81910;-50
2022/03/08 08:22:41;;;;;;;;;;;1.10;75.80;;;;;;5135276;27;82262;-49
2022/03/08 08:25:07;;;;;;;;;;;1.10;75.70;;;;;;5134525;27;81809;-50
2022/03/08 08:27:33;;;;;;;;;;;1.10;75.70;;;;;;5135128;27;82119;-50
2022/03/08 08:29:59;;;;;;;;;;;1.10;75.90;;;;;;5135632;27;81616;-50
2022/03/08 08:32:24;;;;;;;;;;;1.10;75.80;;;;;;5134993;27;81996;-49
2022/03/08 08:34:50;;;;;;;;;;;1.10;75.70;;;;;;5137949;27;82096;-49
2022/03/08 08:37:15;;;;;;;;;;;1.20;75.60;;;;;;5134252;27;82745;-50
2022/03/08 08:39:41;;;;;;;;;;;1.10;75.60;;;;;;5134900;27;83050;-49
2022/03/08 08:42:07;;;;;;;;;;;1.10;75.70;;;;;;5134844;27;82501;-49
2022/03/08 08:44:33;;;;;;;;;;;1.10;75.80;;;;;;5135082;27;81829;-49
2022/03/08 08:46:59;;;;;;;;;;;1.10;75.70;;;;;;5135077;27;81800;-49
2022/03/08 08:49:25;;;;;;;;;;;1.10;75.90;;;;;;5133833;27;82550;-49
2022/03/08 08:51:51;;;;;;;;;;;1.10;76.00;;;;;;5134688;27;81812;-50
2022/03/08 08:54:16;;;;;;;;;;;1.10;75.90;;;;;;5135347;27;81093;-49
2022/03/08 08:56:42;;;;;;;;;;;1.10;75.90;;;;;;5137399;27;82354;-49
2022/03/08 08:59:08;;;;;;;;;;;1.00;76.00;;;;;;5134557;27;82931;-49
2022/03/08 09:01:34;;;;;;;;;;;1.10;75.90;;;;;;5133681;27;83550;-49
2022/03/08 09:04:00;;;;;;;;;;;1.10;75.90;;;;;;5134488;27;82103;-49
2022/03/08 09:06:26;;;;;;;;;;;1.10;75.90;;;;;;5134697;27;81897;-49
2022/03/08 09:08:52;;;;;;;;;;;1.10;75.80;;;;;;5134139;27;83203;-49
2022/03/08 09:11:17;;;;;;;;;;;1.10;75.90;;;;;;5134102;27;81815;-49
2022/03/08 09:13:43;;;;;;;;;;;1.10;75.70;;;;;;5134338;27;82627;-49
2022/03/08 09:16:09;;;;;;;;;;;1.10;75.60;;;;;;5134297;27;81790;-49
2022/03/08 09:18:35;;;;;;;;;;;1.10;75.60;;;;;;5137222;27;81065;-49
2022/03/08 09:21:00;;;;;;;;;;;1.10;75.70;;;;;;5133952;27;82695;-49
2022/03/08 09:23:26;;;;;;;;;;;1.10;75.60;;;;;;5134049;27;81956;-49
2022/03/08 09:25:51;;;;;;;;;;;1.10;75.60;;;;;;5133676;27;82783;-49
2022/03/08 09:28:17;;;;;;;;;;;1.00;75.80;;;;;;5133860;27;83555;-50
2022/03/08 09:30:44;;;;;;;;;;;1.00;75.80;;;;;;5134012;27;81782;-49
2022/03/08 09:33:10;;;;;;;;;;;1.10;75.80;;;;;;5133940;27;83158;-49
2022/03/08 09:35:37;;;;;;;;;;;1.00;75.90;;;;;;5133747;27;83605;-49
2022/03/08 09:38:03;;;;;;;;;;;1.00;75.80;;;;;;5133872;27;81861;-49
2022/03/08 09:40:29;;;;;;;;;;;1.00;76.20;;;;;;5136802;27;81854;-49
2022/03/08 09:42:55;;;;;;;;;;;1.00;76.10;;;;;;5134481;27;81373;-49
2022/03/08 09:45:20;;;;;;;;;;;1.00;76.20;;;;;;5133741;27;82167;-49
2022/03/08 09:47:46;;;;;;;;;;;1.00;75.90;;;;;;5133729;27;82449;-49
2022/03/08 09:50:13;;;;;;;;;;;1.10;75.90;;;;;;5133036;27;82797;-49
2022/03/08 09:52:39;;;;;;;;;;;1.10;75.80;;;;;;5133633;27;83846;-49
2022/03/08 09:55:06;;;;;;;;;;;1.10;75.90;;;;;;5133359;27;82513;-49
2022/03/08 09:57:34;;;;;;;;;;;1.10;75.90;;;;;;5133479;27;82110;-49
2022/03/08 10:00:00;;;;;;;;;;;1.10;75.80;;;;;;5133591;27;82987;-49
2022/03/08 10:02:40;;;;;;;;;;;1.00;75.80;;;;;;5136138;27;83446;-49
2022/03/08 10:05:06;;;;;;;;;;;1.10;76.00;;;;;;5133423;27;82158;-49
2022/03/08 10:07:32;;;;;;;;;;;1.00;75.80;;;;;;5133723;27;84250;-49
2022/03/08 10:09:59;;;;;;;;;;;1.10;75.90;;;;;;5133654;27;82027;-49
2022/03/08 10:12:25;;;;;;;;;;;1.00;75.80;;;;;;5133309;27;82980;-49
2022/03/08 10:14:51;;;;;;;;;;;1.00;75.90;;;;;;5132504;27;83546;-49
2022/03/08 10:17:36;;;;;;;;;;;1.00;75.90;;;;;;5133259;27;81803;-49
2022/03/08 10:20:03;;;;;;;;;;;1.00;75.80;;;;;;5133264;27;82029;-50
2022/03/08 10:22:30;;;;;;;;;;;1.00;75.80;;;;;;5135923;27;83591;-51
2022/03/08 10:25:15;;;;;;;;;;;1.10;75.70;;;;;;5132717;27;82611;-50
2022/03/08 10:27:45;;;;;;;;;;;1.10;75.60;;;;;;5133073;27;83358;-51
2022/03/08 10:30:13;;;;;;;;;;;1.10;75.50;;;;;;5132399;27;81754;-49
2022/03/08 10:32:39;;;;;;;;;;;1.10;75.50;;;;;;5133733;27;82848;-50
2022/03/08 10:35:07;;;;;;;;;;;1.10;75.70;;;;;;5133107;27;82485;-51
2022/03/08 10:37:37;;;;;;;;;;;1.10;75.70;;;;;;5133097;27;81960;-49
2022/03/08 10:40:05;;;;;;;;;;;1.10;75.70;;;;;;5132577;27;82921;-49
2022/03/08 10:57:38;;;;;;;;;;;1.00;75.40;;;;;;5001229;27;1343114;-49
2022/03/08 11:00:09;;;;;;;;;;;0.90;76.20;;;;;;5047484;28;80221;-49
2022/03/08 11:02:35;;;;;;;;;;;1.00;76.10;;;;;;5047581;28;81161;-49
2022/03/08 11:05:08;;;;;;;;;;;0.90;76.10;;;;;;5047151;28;80839;-49
2022/03/08 11:07:37;;;;;;;;;;;1.00;76.30;;;;;;5047370;28;80119;-50
2022/03/08 11:10:04;;;;;;;;;;;1.00;76.10;;;;;;5047181;28;81313;-49
2022/03/08 11:12:29;;;;;;;;;;;1.00;75.90;;;;;;5047131;28;80998;-49
2022/03/08 11:14:55;;;;;;;;;;;1.00;76.00;;;;;;5047365;28;80689;-49
2022/03/08 11:17:22;;;;;;;;;;;1.00;75.90;;;;;;5049931;28;80083;-49
2022/03/08 11:19:49;;;;;;;;;;;1.00;75.90;;;;;;5047469;28;80061;-49
2022/03/08 11:22:16;;;;;;;;;;;1.00;76.10;;;;;;5047193;28;81093;-50
2022/03/08 11:24:42;;;;;;;;;;;1.00;76.20;;;;;;5047372;28;80059;-49
2022/03/08 11:27:08;;;;;;;;;;;1.00;76.00;;;;;;5047130;28;80168;-49
2022/03/08 11:29:35;;;;;;;;;;;1.00;75.90;;;;;;5047137;28;81240;-49
2022/03/08 11:32:04;;;;;;;;;;;1.00;76.00;;;;;;5046801;28;81149;-49
2022/03/08 11:34:41;;;;;;;;;;;1.10;75.80;;;;;;5047051;28;80309;-50
2022/03/08 11:37:18;;;;;;;;;;;1.00;76.00;;;;;;5046987;28;81615;-49
2022/03/08 11:39:44;;;;;;;;;;;1.00;75.90;;;;;;5049486;28;81628;-49
2022/03/08 11:42:15;;;;;;;;;;;1.00;76.10;;;;;;5046869;28;81308;-49
2022/03/08 11:44:53;;;;;;;;;;;1.00;76.10;;;;;;5047026;28;80777;-49
2022/03/08 11:47:19;;;;;;;;;;;1.00;76.00;;;;;;5047062;28;80126;-49
2022/03/08 11:49:52;;;;;;;;;;;1.00;76.20;;;;;;5046757;28;80350;-49
2022/03/08 11:52:19;;;;;;;;;;;1.00;76.00;;;;;;5046933;28;80659;-49
2022/03/08 11:54:52;;;;;;;;;;;1.00;76.20;;;;;;5046725;28;80282;-50
2022/03/08 11:57:37;;;;;;;;;;;1.00;76.20;;;;;;5023028;28;81208;-49
2022/03/08 12:00:20;;;;;;;;;;;1.00;76.10;;;;;;5012523;28;81219;-49
2022/03/08 12:02:47;;;;;;;;;;;1.00;76.10;;;;;;5015996;28;80126;-49
2022/03/08 12:05:31;;;;;;;;;;;1.00;76.10;;;;;;5012816;28;80928;-49
2022/03/08 12:07:57;;;;;;;;;;;1.00;76.20;;;;;;5013110;28;80114;-49
2022/03/08 12:10:23;;;;;;;;;;;1.00;76.30;;;;;;5012280;28;81465;-51
2022/03/08 12:12:51;;;;;;;;;;;1.00;76.30;;;;;;5012857;28;80849;-51
2022/03/08 12:15:17;;;;;;;;;;;1.00;76.40;;;;;;5012255;28;80120;-50
2022/03/08 12:18:03;;;;;;;;;;;1.00;76.20;;;;;;5012243;28;80604;-49
2022/03/08 12:20:28;;;;;;;;;;;1.00;76.10;;;;;;5012037;28;80184;-49
2022/03/08 12:23:09;;;;;;;;;;;1.00;76.30;;;;;;5012233;28;80217;-51
2022/03/08 12:25:35;;;;;;;;;;;1.00;76.20;;;;;;5014781;28;81623;-49
2022/03/08 12:28:01;;;;;;;;;;;1.10;76.20;;;;;;5011971;28;80222;-49
2022/03/08 12:30:40;;;;;;;;;;;1.10;76.00;;;;;;5012084;28;80315;-50
2022/03/08 12:33:06;;;;;;;;;;;1.10;75.90;;;;;;5011895;28;81857;-51
2022/03/08 12:35:31;;;;;;;;;;;1.10;75.90;;;;;;5012371;28;80153;-51
2022/03/08 12:38:02;;;;;;;;;;;1.10;75.70;;;;;;5012152;28;81917;-51
2022/03/08 12:40:30;;;;;;;;;;;1.10;76.00;;;;;;5011612;28;80692;-50
2022/03/08 12:43:02;;;;;;;;;;;1.10;75.80;;;;;;5012037;28;80115;-49
2022/03/08 12:45:28;;;;;;;;;;;1.10;75.90;;;;;;5011811;28;80220;-53
2022/03/08 12:48:20;;;;;;;;;;;1.10;76.00;;;;;;5014614;28;80844;-49
2022/03/08 12:50:47;;;;;;;;;;;1.10;76.00;;;;;;5008141;28;81045;-49
2022/03/08 12:53:18;;;;;;;;;;;1.10;76.10;;;;;;5011744;28;81041;-49
2022/03/08 12:55:45;;;;;;;;;;;1.00;76.00;;;;;;5011630;28;80189;-51
2022/03/08 12:58:12;;;;;;;;;;;1.00;76.20;;;;;;5011666;28;81325;-50
2022/03/08 13:00:43;;;;;;;;;;;1.00;76.20;;;;;;5011306;28;82288;-51
2022/03/08 13:03:11;;;;;;;;;;;1.00;76.10;;;;;;5012319;28;80543;-50
2022/03/08 13:05:39;;;;;;;;;;;1.10;76.20;;;;;;5011574;28;81447;-49
2022/03/08 13:08:05;;;;;;;;;;;1.00;76.10;;;;;;5011328;28;80687;-50
2022/03/08 13:10:31;;;;;;;;;;;1.10;76.10;;;;;;5013383;28;80358;-51
2022/03/08 13:13:02;;;;;;;;;;;1.10;75.90;;;;;;5011564;28;80716;-49
2022/03/08 13:15:28;;;;;;;;;;;1.10;75.80;;;;;;5011392;28;80141;-50
2022/03/08 13:17:55;;;;;;;;;;;1.10;75.70;;;;;;5011441;28;81301;-50
2022/03/08 13:20:23;;;;;;;;;;;1.10;75.90;;;;;;5011246;28;81831;-53
2022/03/08 13:22:49;;;;;;;;;;;1.10;75.60;;;;;;5011270;28;80083;-52
2022/03/08 13:25:15;;;;;;;;;;;1.10;75.80;;;;;;5011144;28;81314;-50
2022/03/08 13:27:49;;;;;;;;;;;1.10;75.60;;;;;;5011041;28;81777;-52
2022/03/08 13:30:16;;;;;;;;;;;1.20;75.50;;;;;;5014010;28;80112;-49
2022/03/08 13:32:41;;;;;;;;;;;1.20;75.40;;;;;;5011327;28;80183;-52
2022/03/08 13:35:07;;;;;;;;;;;1.20;75.40;;;;;;5011287;28;80558;-49
2022/03/08 13:37:46;;;;;;;;;;;1.20;75.50;;;;;;5011203;28;80146;-51
2022/03/08 13:40:28;;;;;;;;;;;1.20;75.40;;;;;;5010818;28;80791;-50
2022/03/08 13:42:57;;;;;;;;;;;1.20;75.40;;;;;;5011060;28;80173;-50
2022/03/08 13:45:23;;;;;;;;;;;1.20;75.40;;;;;;5010693;28;81367;-49
2022/03/08 13:47:52;;;;;;;;;;;1.20;75.50;;;;;;5010726;28;81405;-50
2022/03/08 13:50:19;;;;;;;;;;;1.20;75.50;;;;;;5010768;28;80130;-50
2022/03/08 13:52:51;;;;;;;;;;;1.10;75.50;;;;;;5013387;28;81093;-51
2022/03/08 13:55:18;;;;;;;;;;;1.20;75.40;;;;;;5010421;28;80171;-49
2022/03/08 13:57:53;;;;;;;;;;;1.20;75.20;;;;;;5010683;28;81475;-50
2022/03/08 14:00:19;;;;;;;;;;;1.20;75.20;;;;;;5010642;28;80980;-50
2022/03/08 14:02:44;;;;;;;;;;;1.20;75.20;;;;;;5010633;28;80225;-50
2022/03/08 14:05:10;;;;;;;;;;;1.20;75.20;;;;;;5010534;28;81389;-49
2022/03/08 14:07:36;;;;;;;;;;;1.30;75.20;;;;;;5010591;28;80858;-50
2022/03/08 14:10:03;;;;;;;;;;;1.30;75.10;;;;;;5009760;28;80377;-49
2022/03/08 14:12:42;;;;;;;;;;;1.30;74.90;;;;;;5010631;28;80537;-50
2022/03/08 14:15:08;;;;;;;;;;;1.30;74.90;;;;;;5012926;28;81878;-50
2022/03/08 14:17:34;;;;;;;;;;;1.30;74.90;;;;;;5010462;28;80275;-49
2022/03/08 14:20:11;;;;;;;;;;;1.20;74.80;;;;;;5009915;28;81711;-52
2022/03/08 14:22:37;;;;;;;;;;;1.20;74.80;;;;;;5010606;28;80655;-51
2022/03/08 14:25:03;;;;;;;;;;;1.30;75.10;;;;;;5010264;28;80382;-50
2022/03/08 14:27:30;;;;;;;;;;;1.20;74.90;;;;;;5010466;28;81880;-50
2022/03/08 14:30:00;;;;;;;;;;;1.20;74.90;;;;;;5010816;28;80137;-49
2022/03/08 14:32:32;;;;;;;;;;;1.20;74.90;;;;;;5011132;28;80149;-48
2022/03/08 14:35:08;;;;;;;;;;;1.30;74.90;;;;;;5010728;28;80901;-48
2022/03/08 14:37:34;;;;;;;;;;;1.30;74.80;;;;;;5013408;28;80117;-49
2022/03/08 14:40:00;;;;;;;;;;;1.20;74.90;;;;;;5010674;28;81823;-49
2022/03/08 14:42:33;;;;;;;;;;;1.20;74.80;;;;;;5010715;28;80463;-49
2022/03/08 14:44:59;;;;;;;;;;;1.20;74.80;;;;;;5010651;28;81109;-49